Terminal Aerodrome Forecast
Issued by NWS

Home | Current Version | Previous Version | Text Only | Print | Product List | Glossary On
Versions: 1 2 3 4 5 6 7 8 9 10 11 12 13 14 15 16 17 18 19 20
000
FTUS44 KSJT 241120
TAFSOA
TAF
KSOA 241120Z 2412/2512 17007KT P6SM SCT020
      TEMPO 2412/2415 BKN020
     FM241500 18012G19KT P6SM SCT030
     FM241800 18014G22KT P6SM SKC
     FM250300 16005KT P6SM SCT250=

USA.gov is the U.S. government's official web portal to all federal, state and local government web resources and services.